Time;durP1;ratioP1;P1;durP2;ratioP2;P2;SDS_P1;SDS_P2;PMS_P1;PMS_P2;Temp;Humidity;BMP_temperature;BMP_pressure;BME280_temperature;BME280_humidity;BME280_pressure;Samples;Min_cycle;Max_cycle;Signal;HPM_P1;HPM_P2
2022/11/09 00:00:30;;;;;;;5.63;1.95;;;11.90;99.90;;;;;;5037037;28;20056;-65
2022/11/09 00:02:55;;;;;;;6.75;1.45;;;11.90;99.90;;;;;;5037144;28;20051;-66
2022/11/09 00:05:21;;;;;;;7.07;1.45;;;11.90;99.90;;;;;;5035864;28;20072;-66
2022/11/09 00:07:46;;;;;;;5.35;1.50;;;11.80;99.90;;;;;;5054438;28;20122;-66
2022/11/09 00:10:13;;;;;;;9.40;1.67;;;11.80;99.90;;;;;;5037298;28;20049;-66
2022/11/09 00:12:38;;;;;;;5.68;1.30;;;11.80;99.90;;;;;;5035926;28;20036;-66
2022/11/09 00:15:04;;;;;;;8.25;2.28;;;11.80;99.90;;;;;;5036668;28;20045;-65
2022/11/09 00:17:30;;;;;;;5.75;1.70;;;11.70;99.90;;;;;;5035826;28;20383;-66
2022/11/09 00:19:55;;;;;;;7.22;1.70;;;11.80;99.90;;;;;;5020194;28;20071;-66
2022/11/09 00:22:21;;;;;;;5.00;1.60;;;11.70;99.90;;;;;;5036625;28;20049;-67
2022/11/09 00:24:47;;;;;;;6.20;1.55;;;11.70;99.90;;;;;;5018960;28;20048;-66
2022/11/09 00:27:12;;;;;;;5.50;1.80;;;11.70;99.90;;;;;;5054410;28;20124;-66
2022/11/09 00:29:38;;;;;;;5.85;1.50;;;11.70;99.90;;;;;;5036849;28;20056;-66
2022/11/09 00:32:04;;;;;;;4.95;1.67;;;11.70;99.90;;;;;;5053406;28;20041;-66
2022/11/09 00:34:30;;;;;;;4.25;1.42;;;11.60;99.90;;;;;;5036037;28;20049;-66
2022/11/09 00:36:55;;;;;;;7.53;2.05;;;11.60;99.90;;;;;;5036083;28;20064;-66
2022/11/09 00:39:21;;;;;;;7.63;1.20;;;11.60;99.90;;;;;;5035591;28;20040;-66
2022/11/09 00:41:46;;;;;;;5.80;1.90;;;11.60;99.90;;;;;;5036176;28;20501;-66
2022/11/09 00:44:12;;;;;;;10.02;1.63;;;11.60;99.90;;;;;;5036582;28;20037;-67
2022/11/09 00:46:38;;;;;;;6.55;1.60;;;11.60;99.90;;;;;;5035263;28;20542;-67
2022/11/09 00:49:03;;;;;;;6.90;1.52;;;11.60;99.90;;;;;;5035947;28;20440;-67
2022/11/09 00:51:29;;;;;;;6.65;2.03;;;11.60;99.90;;;;;;5035877;28;20048;-67
2022/11/09 00:53:56;;;;;;;7.72;1.27;;;11.60;99.90;;;;;;5034549;28;20045;-67
2022/11/09 00:56:22;;;;;;;7.07;1.80;;;11.60;99.90;;;;;;5053745;28;20041;-67
2022/11/09 00:58:53;;;;;;;7.85;1.83;;;11.50;99.90;;;;;;5053557;28;20579;-67
2022/11/09 01:01:19;;;;;;;5.43;1.63;;;11.60;99.90;;;;;;5034848;28;20040;-67
2022/11/09 01:03:44;;;;;;;8.10;2.30;;;11.50;99.90;;;;;;5019033;28;20047;-67
2022/11/09 01:06:22;;;;;;;4.80;1.70;;;11.50;99.90;;;;;;5035901;28;20448;-67
2022/11/09 01:08:48;;;;;;;7.55;2.50;;;11.50;99.90;;;;;;5035019;28;20045;-67
2022/11/09 01:11:16;;;;;;;9.02;3.00;;;11.50;99.90;;;;;;5018957;28;20498;-67
2022/11/09 01:13:42;;;;;;;7.63;2.85;;;11.60;99.90;;;;;;5034688;28;20135;-66
2022/11/09 01:16:14;;;;;;;6.43;3.05;;;11.50;99.90;;;;;;5035621;28;20127;-66
2022/11/09 01:18:40;;;;;;;8.25;2.97;;;11.60;99.90;;;;;;5053370;28;20036;-66
2022/11/09 01:21:09;;;;;;;7.80;2.53;;;11.60;99.90;;;;;;5034815;28;20044;-67
2022/11/09 01:23:35;;;;;;;9.70;3.38;;;11.60;99.90;;;;;;5018724;28;20504;-65
2022/11/09 01:26:05;;;;;;;11.43;3.63;;;11.70;99.90;;;;;;5035092;28;20068;-67
2022/11/09 01:28:30;;;;;;;7.53;2.63;;;11.80;99.90;;;;;;5034467;28;20056;-67
2022/11/09 01:31:01;;;;;;;8.10;2.53;;;11.80;99.90;;;;;;5035020;28;20045;-65
2022/11/09 01:33:27;;;;;;;5.72;2.70;;;11.90;99.90;;;;;;5018886;28;20049;-66
2022/11/09 01:35:52;;;;;;;5.40;2.42;;;11.90;99.90;;;;;;5034300;28;20049;-66
2022/11/09 01:38:18;;;;;;;7.18;2.25;;;12.00;99.90;;;;;;5035056;28;20037;-66
2022/11/09 01:40:44;;;;;;;7.72;2.58;;;12.00;99.90;;;;;;5018476;28;20037;-66
2022/11/09 01:43:19;;;;;;;9.57;3.22;;;12.00;99.90;;;;;;5034430;28;20049;-66
2022/11/09 01:45:50;;;;;;;7.45;3.40;;;12.00;99.90;;;;;;5034745;28;20052;-66
2022/11/09 01:48:39;;;;;;;6.68;2.97;;;12.00;99.90;;;;;;5034747;28;20055;-66
2022/11/09 01:51:29;;;;;;;7.50;3.05;;;12.10;99.90;;;;;;5017653;28;20484;-66
2022/11/09 01:54:01;;;;;;;9.05;2.70;;;12.00;99.90;;;;;;5034643;28;20515;-65
2022/11/09 01:56:29;;;;;;;7.85;2.22;;;12.00;99.90;;;;;;5033911;28;20132;-66
2022/11/09 01:59:08;;;;;;;9.10;2.60;;;12.00;99.90;;;;;;5034514;28;20120;-66
2022/11/09 02:01:35;;;;;;;8.65;2.97;;;12.10;99.90;;;;;;5034327;28;20090;-67
2022/11/09 02:04:12;;;;;;;7.32;2.30;;;12.00;99.90;;;;;;5032716;28;20045;-67
2022/11/09 02:06:38;;;;;;;9.27;2.60;;;12.00;99.90;;;;;;5052416;28;20052;-67
2022/11/09 02:09:14;;;;;;;6.45;2.42;;;12.00;99.90;;;;;;5052474;28;20044;-66
2022/11/09 02:11:40;;;;;;;8.30;2.97;;;11.90;99.90;;;;;;5051971;28;20040;-66
2022/11/09 02:14:06;;;;;;;10.40;3.63;;;11.90;99.90;;;;;;5052196;28;20495;-67
2022/11/09 02:16:33;;;;;;;9.00;2.97;;;11.90;99.90;;;;;;5052007;28;20037;-67
2022/11/09 02:19:01;;;;;;;6.82;2.78;;;11.90;99.90;;;;;;5016983;28;20115;-67
2022/11/09 02:21:29;;;;;;;7.10;3.03;;;11.90;99.90;;;;;;5018020;28;20347;-67
2022/11/09 02:23:55;;;;;;;9.27;4.13;;;11.90;99.90;;;;;;5033926;28;20044;-67
2022/11/09 02:26:40;;;;;;;11.85;2.70;;;11.90;99.90;;;;;;5017270;28;20049;-67
2022/11/09 02:29:09;;;;;;;8.43;3.40;;;11.90;99.90;;;;;;5052092;28;20147;-67
2022/11/09 02:31:41;;;;;;;8.40;3.20;;;11.90;99.90;;;;;;5033491;28;20398;-67
2022/11/09 02:34:10;;;;;;;10.10;3.25;;;11.90;99.90;;;;;;5052057;28;20079;-66
2022/11/09 02:36:36;;;;;;;11.25;3.75;;;11.80;99.90;;;;;;5033904;28;20044;-67
2022/11/09 02:39:02;;;;;;;10.02;3.33;;;11.90;99.90;;;;;;5033151;28;20078;-67
2022/11/09 02:41:30;;;;;;;9.77;3.42;;;11.90;99.90;;;;;;5033912;28;20485;-67
2022/11/09 02:43:57;;;;;;;9.70;3.60;;;11.90;99.90;;;;;;5033986;28;20112;-67
2022/11/09 02:46:34;;;;;;;9.02;3.58;;;11.80;99.90;;;;;;5033094;28;20489;-67
2022/11/09 02:49:01;;;;;;;8.88;3.75;;;11.80;99.90;;;;;;5033771;28;20048;-67
2022/11/09 02:51:27;;;;;;;10.07;3.67;;;11.80;99.90;;;;;;5033954;28;20052;-67
2022/11/09 02:53:53;;;;;;;11.23;3.72;;;11.80;99.90;;;;;;5033274;28;20048;-67
2022/11/09 02:56:19;;;;;;;11.50;3.35;;;11.80;99.90;;;;;;5033780;28;20049;-67
2022/11/09 02:58:44;;;;;;;7.28;3.10;;;11.80;99.90;;;;;;5017275;28;20033;-67
2022/11/09 03:01:10;;;;;;;9.32;3.65;;;11.80;99.90;;;;;;5050906;28;20040;-67
2022/11/09 03:03:36;;;;;;;7.90;2.80;;;11.70;99.90;;;;;;5034032;28;20055;-67
2022/11/09 03:06:03;;;;;;;12.98;3.30;;;11.70;99.90;;;;;;5051615;28;20045;-67
2022/11/09 03:08:28;;;;;;;12.70;3.42;;;11.70;99.90;;;;;;5050872;28;20120;-67
2022/11/09 03:10:54;;;;;;;9.00;3.03;;;11.70;99.90;;;;;;5051594;28;20129;-67
2022/11/09 03:13:20;;;;;;;12.57;3.30;;;11.70;99.90;;;;;;5050438;28;20359;-67
2022/11/09 03:15:45;;;;;;;6.90;2.80;;;11.70;99.90;;;;;;5034886;28;20079;-67
2022/11/09 03:18:11;;;;;;;10.50;3.20;;;11.70;99.90;;;;;;5038000;28;20052;-66
2022/11/09 03:20:42;;;;;;;10.93;3.25;;;11.70;99.90;;;;;;5054936;28;20036;-66
2022/11/09 03:23:09;;;;;;;8.82;3.50;;;11.70;99.90;;;;;;5021421;28;20047;-66
2022/11/09 03:25:36;;;;;;;17.70;3.53;;;11.60;99.90;;;;;;5055100;28;20122;-67
2022/11/09 03:28:05;;;;;;;13.07;3.10;;;11.70;99.90;;;;;;5020047;28;20044;-67
2022/11/09 03:30:31;;;;;;;9.18;3.08;;;11.60;99.90;;;;;;5037687;28;20048;-67
2022/11/09 03:33:01;;;;;;;12.35;3.40;;;11.60;99.90;;;;;;5037500;28;20127;-67
2022/11/09 03:35:27;;;;;;;11.93;2.83;;;11.70;99.90;;;;;;5036624;28;20445;-67
2022/11/09 03:37:53;;;;;;;10.93;2.80;;;11.70;99.90;;;;;;5037256;28;20124;-67
2022/11/09 03:40:19;;;;;;;11.07;2.80;;;11.70;99.90;;;;;;5037224;28;20398;-67
2022/11/09 03:42:46;;;;;;;10.10;2.72;;;11.70;99.90;;;;;;5036512;28;20072;-66
2022/11/09 03:45:13;;;;;;;13.18;3.20;;;11.70;99.90;;;;;;5037428;28;20037;-67
2022/11/09 03:47:43;;;;;;;12.35;3.28;;;11.70;99.90;;;;;;5055410;28;20049;-67
2022/11/09 03:50:10;;;;;;;10.90;3.03;;;11.70;99.90;;;;;;5036577;28;20041;-66
2022/11/09 03:52:36;;;;;;;10.32;2.78;;;11.70;99.90;;;;;;5054878;28;20041;-67
2022/11/09 03:55:04;;;;;;;7.05;2.55;;;11.70;99.90;;;;;;5054998;28;20469;-67
2022/11/09 03:57:30;;;;;;;10.07;2.92;;;11.70;99.90;;;;;;5036102;28;20044;-67
2022/11/09 03:59:55;;;;;;;10.75;2.50;;;11.70;99.90;;;;;;5036722;28;20086;-67
2022/11/09 04:02:21;;;;;;;10.32;2.90;;;11.80;99.90;;;;;;5054552;28;20098;-67
2022/11/09 04:04:47;;;;;;;9.48;3.45;;;11.80;99.90;;;;;;5036076;28;20045;-67
2022/11/09 04:07:12;;;;;;;10.57;2.67;;;11.80;99.90;;;;;;5020633;28;20049;-67
2022/11/09 04:09:38;;;;;;;16.10;4.10;;;11.70;99.90;;;;;;5019457;28;20049;-67
2022/11/09 04:12:04;;;;;;;10.82;2.88;;;11.70;99.90;;;;;;5036585;28;20045;-67
2022/11/09 04:14:30;;;;;;;12.25;3.22;;;11.70;99.90;;;;;;5054537;28;20044;-67
2022/11/09 04:16:56;;;;;;;15.93;3.67;;;11.70;99.90;;;;;;5053709;28;20076;-67
2022/11/09 04:19:21;;;;;;;9.50;2.70;;;11.70;99.90;;;;;;5036507;28;20037;-67
2022/11/09 04:21:52;;;;;;;9.98;2.50;;;11.80;99.90;;;;;;5036651;28;20124;-67
2022/11/09 04:24:18;;;;;;;8.82;2.70;;;11.70;99.90;;;;;;5035502;28;20053;-67
2022/11/09 04:26:46;;;;;;;6.28;2.40;;;11.80;99.90;;;;;;5053668;28;20056;-67
2022/11/09 04:29:12;;;;;;;13.93;3.80;;;11.80;99.90;;;;;;5054280;28;20067;-67
2022/11/09 04:31:37;;;;;;;7.80;2.20;;;11.80;99.90;;;;;;5053453;28;20041;-67
2022/11/09 04:34:03;;;;;;;16.05;3.60;;;11.80;99.90;;;;;;5054128;28;20029;-67
2022/11/09 04:36:29;;;;;;;14.02;3.05;;;11.90;99.90;;;;;;5035944;28;20124;-67
2022/11/09 04:38:54;;;;;;;9.93;2.95;;;11.90;99.90;;;;;;5053408;28;20037;-67
2022/11/09 04:41:20;;;;;;;15.45;3.15;;;11.90;99.90;;;;;;5019676;28;20041;-67
2022/11/09 04:43:46;;;;;;;8.55;2.70;;;11.80;99.90;;;;;;5019656;28;20029;-67
2022/11/09 04:46:11;;;;;;;12.02;3.15;;;11.80;99.90;;;;;;5035871;28;20053;-68
2022/11/09 04:48:37;;;;;;;10.27;3.00;;;11.80;99.90;;;;;;5036284;28;20386;-67
2022/11/09 04:51:09;;;;;;;8.07;3.38;;;11.70;99.90;;;;;;5053676;28;20486;-67
2022/11/09 04:53:35;;;;;;;12.10;3.42;;;11.70;99.90;;;;;;5053176;28;20029;-67
2022/11/09 04:56:02;;;;;;;9.45;3.15;;;11.70;99.90;;;;;;5035579;28;20048;-67
2022/11/09 04:58:27;;;;;;;12.43;2.90;;;11.70;99.90;;;;;;5053788;28;20390;-67
2022/11/09 05:00:53;;;;;;;16.15;2.97;;;11.70;99.90;;;;;;5018409;28;20044;-67
2022/11/09 05:03:19;;;;;;;14.10;4.13;;;11.70;99.90;;;;;;5053489;28;20379;-67
2022/11/09 05:05:45;;;;;;;10.80;3.05;;;11.60;99.90;;;;;;5052651;28;20041;-67
2022/11/09 05:08:11;;;;;;;10.55;2.80;;;11.60;99.90;;;;;;5036052;28;20043;-67
2022/11/09 05:10:37;;;;;;;12.00;2.92;;;11.60;99.90;;;;;;5053222;28;20041;-67
2022/11/09 05:13:09;;;;;;;9.27;2.85;;;11.60;99.90;;;;;;5052839;28;20044;-67
2022/11/09 05:15:35;;;;;;;14.68;2.92;;;11.50;99.90;;;;;;5035560;28;20123;-67
2022/11/09 05:18:01;;;;;;;9.95;3.25;;;11.60;99.90;;;;;;5035440;28;20079;-67
2022/11/09 05:20:27;;;;;;;11.02;3.42;;;11.60;99.90;;;;;;5034527;28;20218;-67
2022/11/09 05:25:38;;;;;;;12.55;2.63;;;11.60;99.90;;;;;;5052940;28;20064;-67
2022/11/09 05:28:04;;;;;;;12.98;3.47;;;11.60;99.90;;;;;;5034467;28;20041;-68
2022/11/09 05:30:30;;;;;;;7.68;2.75;;;11.60;99.90;;;;;;5035063;28;20049;-67
2022/11/09 05:32:56;;;;;;;9.40;2.42;;;11.70;99.90;;;;;;5035163;28;20045;-67
2022/11/09 05:35:21;;;;;;;9.45;3.20;;;11.60;99.90;;;;;;5034293;28;20045;-67
2022/11/09 05:37:48;;;;;;;12.35;3.88;;;11.70;99.90;;;;;;5035460;28;20045;-67
2022/11/09 05:40:15;;;;;;;8.27;2.67;;;11.60;99.90;;;;;;5034635;28;20032;-67
2022/11/09 05:42:41;;;;;;;7.82;2.40;;;11.60;99.90;;;;;;5018000;28;20041;-67
2022/11/09 05:45:13;;;;;;;8.07;2.65;;;11.70;99.90;;;;;;5035001;28;20050;-67
2022/11/09 05:47:40;;;;;;;10.93;3.22;;;11.60;99.90;;;;;;5053223;28;20040;-67
2022/11/09 05:50:07;;;;;;;12.65;3.08;;;11.60;99.90;;;;;;5034189;28;20037;-67
2022/11/09 05:52:33;;;;;;;10.30;3.67;;;11.60;99.90;;;;;;5034852;28;20105;-67
2022/11/09 05:55:01;;;;;;;8.02;2.95;;;11.50;99.90;;;;;;5051544;28;20045;-67
2022/11/09 05:57:28;;;;;;;10.13;2.63;;;11.50;99.90;;;;;;5034646;28;20059;-67
2022/11/09 05:59:53;;;;;;;9.43;3.10;;;11.50;99.90;;;;;;5034488;28;20071;-67
2022/11/09 06:02:19;;;;;;;12.55;3.53;;;11.50;99.90;;;;;;5033855;28;20083;-68
2022/11/09 06:04:45;;;;;;;8.27;2.58;;;11.50;99.90;;;;;;5052312;28;20036;-67
2022/11/09 06:07:10;;;;;;;8.50;2.85;;;11.50;99.90;;;;;;5034694;28;20175;-67
2022/11/09 06:09:36;;;;;;;10.50;2.67;;;11.50;99.90;;;;;;5033683;28;20055;-67
2022/11/09 06:12:02;;;;;;;16.02;3.40;;;11.50;99.90;;;;;;5034400;28;20776;-67
2022/11/09 06:14:28;;;;;;;7.43;3.03;;;11.40;99.90;;;;;;5034218;28;20042;-67
2022/11/09 06:16:53;;;;;;;10.90;2.83;;;11.40;99.90;;;;;;5017414;28;20035;-67
2022/11/09 06:19:19;;;;;;;13.82;3.63;;;11.40;99.90;;;;;;5034384;28;20487;-67
2022/11/09 06:21:44;;;;;;;13.20;3.55;;;11.40;99.90;;;;;;5017784;28;20044;-66
2022/11/09 06:24:10;;;;;;;10.20;3.17;;;11.40;99.90;;;;;;5033630;28;20068;-66
2022/11/09 06:26:36;;;;;;;10.77;2.60;;;11.40;99.90;;;;;;5034290;28;20413;-66
2022/11/09 06:29:02;;;;;;;11.07;2.65;;;11.40;99.90;;;;;;5034252;28;20401;-66
2022/11/09 06:31:28;;;;;;;9.77;2.83;;;11.40;99.90;;;;;;5033654;28;20041;-66
2022/11/09 06:33:53;;;;;;;14.77;3.30;;;11.30;99.90;;;;;;5052059;28;20037;-67
2022/11/09 06:36:19;;;;;;;10.25;3.17;;;11.30;99.90;;;;;;5017655;28;20556;-67
2022/11/09 06:38:48;;;;;;;10.50;2.85;;;11.30;99.90;;;;;;5016953;28;20033;-67
2022/11/09 06:41:14;;;;;;;8.15;2.63;;;11.30;99.90;;;;;;5051803;28;20087;-67
2022/11/09 06:43:40;;;;;;;11.93;2.83;;;11.30;99.90;;;;;;5034496;28;20040;-66
2022/11/09 06:46:05;;;;;;;10.00;3.13;;;11.30;99.90;;;;;;5033247;28;20048;-67
2022/11/09 06:48:31;;;;;;;10.80;3.00;;;11.30;99.90;;;;;;5033960;28;20044;-68
2022/11/09 06:51:01;;;;;;;7.68;2.58;;;11.30;99.90;;;;;;5033207;28;20070;-67
2022/11/09 06:53:29;;;;;;;12.77;2.95;;;11.30;99.90;;;;;;5016743;28;20043;-67
2022/11/09 06:56:03;;;;;;;7.93;2.90;;;11.30;99.90;;;;;;5033813;28;20037;-67
2022/11/09 06:58:30;;;;;;;12.02;3.25;;;11.30;99.90;;;;;;5033573;28;20436;-67
2022/11/09 07:00:56;;;;;;;9.15;3.13;;;11.30;99.90;;;;;;5033724;28;20426;-67
2022/11/09 07:03:23;;;;;;;8.95;2.80;;;11.30;99.90;;;;;;5033793;28;20037;-67
2022/11/09 07:05:50;;;;;;;9.65;3.33;;;11.30;99.90;;;;;;5016400;28;20037;-68
2022/11/09 07:08:16;;;;;;;13.88;5.95;;;11.20;99.90;;;;;;5034011;28;20053;-66
2022/11/09 07:10:43;;;;;;;7.13;2.75;;;11.20;99.90;;;;;;5033719;28;20059;-68
2022/11/09 07:13:09;;;;;;;11.35;3.50;;;11.20;99.90;;;;;;5033471;28;20227;-67
2022/11/09 07:15:36;;;;;;;7.93;2.90;;;11.20;99.90;;;;;;5033706;28;20052;-67
2022/11/09 07:18:03;;;;;;;7.45;2.45;;;11.20;99.90;;;;;;5033829;28;20044;-67
2022/11/09 07:20:30;;;;;;;8.25;2.83;;;11.20;99.90;;;;;;5032941;28;20033;-67
2022/11/09 07:22:55;;;;;;;12.80;3.35;;;11.20;99.90;;;;;;5017557;28;20063;-67
2022/11/09 07:25:22;;;;;;;7.85;2.40;;;11.20;99.90;;;;;;5033332;28;20498;-66
2022/11/09 07:27:47;;;;;;;10.25;2.97;;;11.20;99.90;;;;;;5050906;28;20090;-67
2022/11/09 07:30:13;;;;;;;9.85;2.95;;;11.20;99.90;;;;;;5051451;28;20045;-67
2022/11/09 07:32:39;;;;;;;10.13;3.30;;;11.20;99.90;;;;;;5033808;28;20045;-67
2022/11/09 07:35:06;;;;;;;9.07;3.00;;;11.20;99.90;;;;;;5050786;28;20041;-67
2022/11/09 07:37:32;;;;;;;10.60;2.50;;;11.20;99.90;;;;;;5033573;28;20078;-67
2022/11/09 07:39:58;;;;;;;10.27;2.95;;;11.20;99.90;;;;;;5051259;28;20119;-67
2022/11/09 07:42:24;;;;;;;15.23;3.00;;;11.20;99.90;;;;;;5016420;28;20090;-67
2022/11/09 07:44:49;;;;;;;7.65;3.22;;;11.20;99.90;;;;;;5030878;28;20040;-67
2022/11/09 07:47:16;;;;;;;10.35;2.65;;;11.20;99.90;;;;;;5071455;28;20170;-67
2022/11/09 07:49:42;;;;;;;11.40;2.92;;;11.20;99.90;;;;;;5039444;28;20041;-67
2022/11/09 07:52:08;;;;;;;8.10;2.50;;;11.20;99.90;;;;;;5031131;28;20040;-67
2022/11/09 07:54:33;;;;;;;13.00;2.70;;;11.30;99.90;;;;;;5011920;28;20504;-67
2022/11/09 07:56:59;;;;;;;15.07;3.95;;;11.30;99.90;;;;;;5025605;28;20045;-68
2022/11/09 07:59:25;;;;;;;7.35;2.60;;;11.30;99.90;;;;;;5028492;28;20048;-67
2022/11/09 08:01:50;;;;;;;11.32;2.97;;;11.40;99.90;;;;;;5027235;28;20464;-68
2022/11/09 08:04:16;;;;;;;10.15;2.78;;;11.40;99.90;;;;;;5013954;28;20037;-67
2022/11/09 08:06:41;;;;;;;9.35;3.25;;;11.40;99.90;;;;;;5031983;28;20555;-67
2022/11/09 08:09:07;;;;;;;12.32;3.13;;;11.50;99.90;;;;;;5026363;28;20040;-67
2022/11/09 08:11:33;;;;;;;9.82;2.70;;;11.50;99.90;;;;;;5052307;28;20044;-68
2022/11/09 08:13:58;;;;;;;15.60;4.13;;;11.50;99.90;;;;;;5033644;28;20052;-67
2022/11/09 08:16:24;;;;;;;7.68;2.83;;;11.60;99.90;;;;;;5051412;28;20099;-66
2022/11/09 08:18:50;;;;;;;12.82;3.50;;;11.60;99.90;;;;;;5032642;28;20041;-66
2022/11/09 08:21:16;;;;;;;13.82;3.10;;;11.60;99.90;;;;;;5034330;28;20432;-67
2022/11/09 08:23:41;;;;;;;9.57;3.53;;;11.70;99.90;;;;;;5016801;28;20037;-67
2022/11/09 08:26:07;;;;;;;11.88;3.20;;;11.80;99.90;;;;;;5051434;28;20057;-67
2022/11/09 08:28:33;;;;;;;12.63;3.13;;;11.80;99.90;;;;;;5034419;28;20057;-68
2022/11/09 08:31:01;;;;;;;9.98;3.00;;;12.00;99.90;;;;;;5050705;28;20088;-66
2022/11/09 08:33:30;;;;;;;7.15;2.65;;;12.00;99.90;;;;;;5034056;28;20060;-68
2022/11/09 08:35:56;;;;;;;10.85;2.75;;;12.00;99.90;;;;;;5029364;28;20408;-70
2022/11/09 08:38:21;;;;;;;13.35;3.15;;;12.10;99.90;;;;;;5031708;28;20051;-68
2022/11/09 08:40:47;;;;;;;11.07;3.35;;;12.10;99.90;;;;;;5051157;28;20513;-67
2022/11/09 08:43:13;;;;;;;8.98;3.10;;;12.10;99.90;;;;;;5033303;28;20037;-70
2022/11/09 08:45:40;;;;;;;25.73;4.75;;;12.10;99.90;;;;;;5050938;28;20037;-70
2022/11/09 08:48:07;;;;;;;12.10;2.80;;;12.10;99.90;;;;;;5033164;28;20485;-68
2022/11/09 08:50:35;;;;;;;8.90;2.75;;;12.10;99.90;;;;;;5033228;28;20037;-72
2022/11/09 08:53:02;;;;;;;12.90;3.67;;;12.10;99.90;;;;;;5050290;28;20072;-68
2022/11/09 08:55:28;;;;;;;17.00;3.22;;;12.10;99.90;;;;;;5030935;28;20079;-70
2022/11/09 08:57:55;;;;;;;12.30;3.10;;;12.10;99.90;;;;;;5032138;28;20036;-71
2022/11/09 09:00:21;;;;;;;12.10;3.35;;;12.20;99.90;;;;;;5032624;28;20091;-69
2022/11/09 09:02:47;;;;;;;10.60;2.75;;;12.20;99.90;;;;;;5050764;28;20064;-72
2022/11/09 09:05:14;;;;;;;13.88;3.03;;;12.30;99.90;;;;;;5016001;28;20045;-73
2022/11/09 09:07:39;;;;;;;12.93;3.35;;;12.30;99.90;;;;;;5030047;28;20128;-70
2022/11/09 09:10:05;;;;;;;12.18;3.38;;;12.40;99.90;;;;;;5041065;28;20129;-69
2022/11/09 09:12:31;;;;;;;11.27;3.35;;;12.50;99.90;;;;;;5014569;28;20123;-72
2022/11/09 09:14:56;;;;;;;9.90;3.28;;;12.50;99.90;;;;;;5050463;28;20457;-72
2022/11/09 09:17:22;;;;;;;10.23;2.70;;;12.60;99.90;;;;;;5048149;28;20533;-69
2022/11/09 09:19:48;;;;;;;12.65;3.03;;;12.70;99.90;;;;;;5031201;28;20033;-68
2022/11/09 09:22:14;;;;;;;10.77;3.13;;;12.70;99.90;;;;;;5050252;28;21365;-69
2022/11/09 09:24:40;;;;;;;12.00;3.03;;;12.70;99.90;;;;;;5023140;28;20058;-67
2022/11/09 09:27:05;;;;;;;8.10;2.50;;;12.80;99.90;;;;;;5029015;28;20482;-67
2022/11/09 09:29:31;;;;;;;10.50;2.83;;;12.80;99.90;;;;;;5030485;28;20044;-68
2022/11/09 09:31:56;;;;;;;9.23;2.42;;;12.80;99.90;;;;;;4996739;28;20034;-68
2022/11/09 09:34:22;;;;;;;8.25;2.75;;;12.80;99.90;;;;;;5012430;28;20052;-69
2022/11/09 09:36:48;;;;;;;9.40;2.92;;;12.80;99.90;;;;;;5011541;28;20049;-68
2022/11/09 09:39:14;;;;;;;11.98;2.45;;;12.80;99.90;;;;;;5009851;28;20064;-67
2022/11/09 09:41:46;;;;;;;7.88;2.95;;;12.90;99.90;;;;;;5010618;28;20045;-66
2022/11/09 09:44:33;;;;;;;11.35;2.90;;;12.90;99.90;;;;;;5009910;28;20438;-66
2022/11/09 09:47:32;;;;;;;10.60;3.03;;;13.00;99.90;;;;;;5004415;28;20121;-66
2022/11/09 09:50:07;;;;;;;14.80;2.95;;;13.00;99.90;;;;;;5030204;28;20063;-67
2022/11/09 09:52:43;;;;;;;11.32;3.20;;;13.00;99.90;;;;;;5030087;28;20073;-67
2022/11/09 09:55:32;;;;;;;10.57;3.50;;;13.10;99.90;;;;;;5029991;28;20041;-66
2022/11/09 09:58:11;;;;;;;8.43;2.85;;;13.10;99.90;;;;;;5029019;28;20084;-67
2022/11/09 10:00:38;;;;;;;9.73;2.53;;;13.20;99.90;;;;;;5012176;28;20116;-66
2022/11/09 10:03:05;;;;;;;9.75;2.97;;;13.20;99.90;;;;;;4994898;28;20041;-67
2022/11/09 10:05:44;;;;;;;11.02;3.13;;;13.30;99.90;;;;;;5011938;28;20132;-68
2022/11/09 10:08:19;;;;;;;12.82;3.10;;;13.30;99.90;;;;;;5028269;28;20091;-66
2022/11/09 10:11:29;;;;;;;11.18;3.60;;;13.30;99.90;;;;;;4995047;28;20112;-67
2022/11/09 10:14:33;;;;;;;7.55;2.67;;;13.30;99.90;;;;;;4976227;28;20380;-67
2022/11/09 10:17:14;;;;;;;12.50;2.97;;;13.30;99.90;;;;;;4963872;28;20053;-67
2022/11/09 10:19:51;;;;;;;12.18;3.38;;;13.30;99.90;;;;;;5012748;28;20127;-66
2022/11/09 10:22:46;;;;;;;10.55;4.18;;;13.40;99.90;;;;;;5011572;28;20126;-68
2022/11/09 10:25:20;;;;;;;8.90;2.95;;;13.40;99.90;;;;;;4986903;28;20045;-67
2022/11/09 10:27:57;;;;;;;10.27;3.97;;;13.40;99.90;;;;;;5031376;28;20041;-66
2022/11/09 10:30:24;;;;;;;9.73;4.05;;;13.50;99.90;;;;;;5030645;28;20132;-66
2022/11/09 10:32:53;;;;;;;13.80;4.05;;;13.50;99.90;;;;;;5015290;28;20493;-67
2022/11/09 10:35:50;;;;;;;8.85;3.80;;;13.50;99.90;;;;;;5014809;28;20049;-66
2022/11/09 10:38:23;;;;;;;14.13;4.57;;;13.50;99.90;;;;;;5019706;28;20064;-66
2022/11/09 10:41:10;;;;;;;12.95;4.78;;;13.50;99.90;;;;;;5031143;28;20119;-66
2022/11/09 10:43:35;;;;;;;15.70;4.90;;;13.30;99.90;;;;;;5027036;28;20197;-66
2022/11/09 10:46:05;;;;;;;12.93;5.57;;;13.30;99.90;;;;;;5027032;28;20132;-67
2022/11/09 10:48:36;;;;;;;9.80;4.13;;;13.30;99.90;;;;;;5031584;28;20088;-66
2022/11/09 10:51:02;;;;;;;9.40;4.45;;;13.30;99.90;;;;;;5027464;28;20082;-67
2022/11/09 10:53:30;;;;;;;10.60;4.05;;;13.40;99.90;;;;;;5024955;28;20045;-67
2022/11/09 10:56:17;;;;;;;13.32;4.10;;;13.40;99.90;;;;;;5008823;28;20136;-67
2022/11/09 10:58:49;;;;;;;10.13;3.90;;;13.40;99.90;;;;;;5027286;28;20056;-66
2022/11/09 11:01:23;;;;;;;9.85;4.38;;;13.30;99.90;;;;;;5029693;28;20033;-67
2022/11/09 11:03:54;;;;;;;10.85;4.90;;;13.30;99.90;;;;;;5011998;28;20434;-66
2022/11/09 11:06:20;;;;;;;10.50;4.65;;;13.30;99.90;;;;;;5026942;28;20052;-67
2022/11/09 11:08:49;;;;;;;10.30;3.90;;;13.20;99.90;;;;;;5049109;28;20037;-67
2022/11/09 11:11:27;;;;;;;11.25;3.97;;;13.20;99.90;;;;;;5030766;28;20048;-67
2022/11/09 11:14:14;;;;;;;11.73;4.70;;;13.20;99.90;;;;;;5030765;28;20602;-68
2022/11/09 11:16:41;;;;;;;12.05;3.83;;;13.30;99.90;;;;;;5014393;28;20570;-68
2022/11/09 11:19:33;;;;;;;12.55;3.78;;;13.40;99.90;;;;;;5010325;28;20037;-67
2022/11/09 11:22:10;;;;;;;12.25;4.35;;;13.40;99.90;;;;;;5026452;28;20120;-67
2022/11/09 11:24:43;;;;;;;13.52;4.55;;;13.40;99.90;;;;;;5023763;28;20123;-67
2022/11/09 11:27:34;;;;;;;12.82;4.10;;;13.40;99.90;;;;;;5009393;28;20053;-67
2022/11/09 11:30:02;;;;;;;12.43;4.68;;;13.30;99.90;;;;;;5010860;28;20045;-67
2022/11/09 11:32:28;;;;;;;11.32;4.03;;;13.30;99.90;;;;;;5010330;28;20088;-66
2022/11/09 11:34:55;;;;;;;9.27;4.22;;;13.30;99.90;;;;;;5027143;28;20049;-67
2022/11/09 11:37:34;;;;;;;8.52;4.13;;;13.20;99.90;;;;;;5023727;28;20390;-67
2022/11/09 11:40:04;;;;;;;11.10;4.40;;;13.20;99.90;;;;;;5014472;28;20406;-67
2022/11/09 11:42:48;;;;;;;10.60;4.97;;;13.20;99.90;;;;;;5014724;28;20037;-67
2022/11/09 11:45:32;;;;;;;8.95;4.47;;;13.20;99.90;;;;;;4998471;28;20045;-67
2022/11/09 11:48:22;;;;;;;12.30;4.35;;;13.30;99.90;;;;;;4997797;28;20037;-67
2022/11/09 11:51:08;;;;;;;15.32;5.85;;;13.30;99.90;;;;;;5012640;28;20046;-67
2022/11/09 11:53:37;;;;;;;10.68;4.63;;;13.30;99.90;;;;;;5012298;28;20053;-67
2022/11/09 11:56:18;;;;;;;16.20;5.88;;;13.20;99.90;;;;;;5013887;28;20052;-66
2022/11/09 11:58:55;;;;;;;14.20;4.97;;;13.10;99.90;;;;;;4997928;28;20041;-66
2022/11/09 12:01:36;;;;;;;15.23;5.60;;;12.80;99.90;;;;;;5013385;28;20056;-64
2022/11/09 12:04:35;;;;;;;10.32;4.97;;;12.60;99.90;;;;;;5010504;28;20371;-63
2022/11/09 12:07:03;;;;;;;12.18;4.75;;;12.40;99.90;;;;;;5012666;28;20124;-63
2022/11/09 12:09:54;;;;;;;9.52;5.30;;;12.20;99.90;;;;;;5012734;28;20037;-63
2022/11/09 12:12:28;;;;;;;13.02;5.70;;;12.10;99.90;;;;;;5014380;28;20136;-63
2022/11/09 12:15:38;;;;;;;14.52;5.60;;;12.00;99.90;;;;;;5013235;28;20130;-63
2022/11/09 12:18:22;;;;;;;10.45;4.10;;;11.90;99.90;;;;;;5011825;28;20046;-63
2022/11/09 12:20:54;;;;;;;7.10;2.50;;;11.80;99.90;;;;;;5031156;28;20037;-62
2022/11/09 12:23:55;;;;;;;8.55;2.67;;;11.70;99.90;;;;;;5030555;28;20124;-63
2022/11/09 12:26:36;;;;;;;6.60;1.75;;;11.50;99.90;;;;;;5002539;28;20106;-63
2022/11/09 12:29:11;;;;;;;6.00;1.80;;;11.40;99.90;;;;;;5032870;28;20099;-63
2022/11/09 12:31:37;;;;;;;;;;;11.30;99.90;;;;;;5034577;28;20045;-63
2022/11/09 12:34:30;;;;;;;8.50;2.53;;;11.30;99.90;;;;;;5051906;28;19921;-63
2022/11/09 12:37:03;;;;;;;6.00;1.70;;;11.20;99.90;;;;;;5002667;28;20513;-62
2022/11/09 12:39:46;;;;;;;6.38;1.90;;;11.10;99.90;;;;;;5016848;28;20045;-63
2022/11/09 12:42:32;;;;;;;4.55;1.52;;;11.00;99.90;;;;;;5052305;28;20076;-63
2022/11/09 12:45:02;;;;;;;3.58;1.40;;;10.90;99.90;;;;;;5033186;28;20040;-63
2022/11/09 12:47:40;;;;;;;5.10;1.10;;;10.90;99.90;;;;;;5033666;28;20381;-62
2022/11/09 12:50:11;;;;;;;4.50;1.15;;;10.80;99.90;;;;;;5028732;28;20050;-62
2022/11/09 12:52:38;;;;;;;5.25;1.30;;;10.80;99.90;;;;;;5024998;28;20053;-62
2022/11/09 12:55:04;;;;;;;2.22;0.95;;;10.80;99.90;;;;;;5033145;28;20127;-62
2022/11/09 12:57:32;;;;;;;2.15;0.90;;;10.80;99.90;;;;;;5032527;28;20048;-62